ADDS TAF Board (Experimental) INFO Settings

IDs: Format: Expanded Condensed

KPHL - Philadelphia Intl, PA, US

Issued at 2334 UTC 27 Mar 2015
Updated at: 0031 UTC 28 Mar 2015
Time2354Z 28/01Z 28/02Z 28/03Z 28/04Z 28/05Z 28/06Z 28/07Z 28/08Z 28/09Z 28/10Z 28/11Z 28/12Z 28/13Z
Type OBS PRVL PRVL PRVL PRVL PRVL PRVL PRVL PRVL PRVL PRVL PRVL PRVL PRVL
VIS 10 >6 >6 >6 >6 >6 >6 >6 >6 >6 >6 >6 >6 >6
CIG 55 50 50 50 50 50 50 50 50 50 50 50 50 50
Cover OVC BKN BKN BKN BKN BKN BKN BKN BKN BKN BKN BKN BKN BKN
FltCat VFR VFR VFR VFR VFR VFR VFR VFR VFR VFR VFR VFR VFR VFR
WX -- -- -- -- -- -- -- -- -- -- -- -- VCSH VCSH
WDir 10 340 340 340 340 340 340 340 340 340 340 340 330 330
WSpd 8 8 8 8 8 8 12 12 12 12 12 12 12 12
WGst -- -- -- -- -- -- -- -- -- -- -- -- 21 21
R08/26
XWnd 7 8 8 8 8 8 12 12 12 12 12 12 12 12
XGst -- -- -- -- -- -- -- -- -- -- -- -- 20 20
HWnd 3 -1 -1 -1 -1 -1 -1 -1 -1 -1 -1 -1 -3 -3
HGst -- -- -- -- -- -- -- -- -- -- -- -- -5 -5
R09/27
XWnd 7 8 8 8 8 8 12 12 12 12 12 12 12 12
XGst -- -- -- -- -- -- -- -- -- -- -- -- 20 20
HWnd 3 -1 -1 -1 -1 -1 -1 -1 -1 -1 -1 -1 -3 -3
HGst -- -- -- -- -- -- -- -- -- -- -- -- -5 -5
R17/35
XWnd 4 0 0 0 0 0 0 0 0 0 0 0 -2 -2
XGst -- -- -- -- -- -- -- -- -- -- -- -- -3 -3
HWnd -7 -8 -8 -8 -8 -8 -12 -12 -12 -12 -12 -12 -12 -12
HGst -- -- -- -- -- -- -- -- -- -- -- -- -21 -21

NOTE: TEMPO conditions in [brackets]. Keep in mind TEMPO conditions might be better (lower impact) than prevailing conditions.

Raw TAF
KPHL 272334Z 2800/2906 34008KT P6SM BKN050
  FM280600 34012KT P6SM BKN050
  FM281200 33012G21KT P6SM VCSH BKN050
  FM281600 32015G25KT P6SM BKN060
  FM290200 33013G23KT P6SM SKC


Raw METAR
KPHL 272354Z 01008KT 10SM BKN055 OVC130 07/M03 A2978 RMK AO2 SLP083 T00721033 10089 20072 51012 $
KPHL 272254Z 33006KT 10SM BKN050 BKN130 OVC250 08/M03 A2977 RMK AO2 SLP081 T00831033 $
KPHL 272154Z 01007KT 10SM BKN040 BKN140 OVC180 08/M03 A2975 RMK AO2 SLP075 T00831033 $

METAR Board
Radar Display
Forecast Discussion

TAF Board Legend

Potential Impact
Threat None Slight Moderate High
Visibility (sm) ≥5.1 5.1>X≥3 3>X≥1 <1
Ceiling (100 ft) ≥30.1 30.1>X≥10 10>X≥5 <5
Wind Speed (kt) <10 10≤X<20 20≤X<30 ≥30
Wind Gust (kt) <15 15≤X<25 25≤X<35 ≥35
Weather No Wx Reported VCTS,-TS,-FZRA,SN TS,FZRA +TS,+FZRA,+SN